Time,TemperatureF,DewpointF,PressureIn,WindDirection,WindDirectionDegrees,WindSpeedMPH,WindSpeedGustMPH,Humidity,HourlyPrecipIn,Conditions,Clouds,dailyrainin,SolarRadiationWatts/m^2,SoftwareType,DateUTC
2013-08-01 00:02:00,67.0,50.0,-100.00,North,7,3.0,7.0,55,0.00,,,0.03,0.000000,,2013-08-01 06:02:00,
2013-08-01 00:12:00,67.0,50.0,-100.00,North,7,3.0,7.0,55,0.00,,,0.03,0.000000,,2013-08-01 06:12:00,
2013-08-01 00:22:00,67.0,50.0,-100.00,North,7,3.0,7.0,55,0.00,,,0.03,0.000000,,2013-08-01 06:22:00,
2013-08-01 00:33:00,67.0,50.0,-100.00,North,7,3.0,7.0,55,0.00,,,0.03,0.000000,,2013-08-01 06:33:00,
2013-08-01 01:02:00,64.0,49.0,-100.00,NNW,344,2.0,7.0,58,0.00,,,0.03,0.000000,,2013-08-01 07:02:00,
2013-08-01 01:12:00,64.0,49.0,-100.00,NNW,344,2.0,7.0,58,0.00,,,0.03,0.000000,,2013-08-01 07:12:00,
2013-08-01 01:23:00,64.0,49.0,-100.00,NNW,344,2.0,7.0,58,0.00,,,0.03,0.000000,,2013-08-01 07:23:00,
2013-08-01 01:32:00,64.0,49.0,-100.00,NNW,344,2.0,7.0,58,0.00,,,0.03,0.000000,,2013-08-01 07:32:00,
2013-08-01 01:35:00,64.0,47.0,-100.00,NNW,342,2.0,6.0,54,0.00,,,0.03,0.000000,,2013-08-01 07:35:00,
2013-08-01 02:05:00,64.0,47.0,-100.00,NNW,342,2.0,6.0,54,0.00,,,0.03,0.000000,,2013-08-01 08:05:00,
2013-08-01 02:15:00,64.0,47.0,-100.00,NNW,342,2.0,6.0,54,0.00,,,0.03,0.000000,,2013-08-01 08:15:00,
2013-08-01 02:35:00,65.0,49.0,-100.00,NW,322,3.0,5.0,56,0.00,,,0.00,0.000000,,2013-08-01 08:35:00,
2013-08-01 03:14:00,65.0,49.0,-100.00,NW,322,3.0,5.0,56,0.00,,,0.00,0.000000,,2013-08-01 09:14:00,
2013-08-01 03:20:00,65.0,49.0,-100.00,NW,322,3.0,5.0,56,0.00,,,0.00,0.000000,,2013-08-01 09:20:00,
2013-08-01 03:30:00,65.0,49.0,-100.00,NW,322,3.0,5.0,56,0.00,,,0.00,0.000000,,2013-08-01 09:30:00,
2013-08-01 03:35:00,65.0,50.0,-100.00,West,263,2.0,5.0,58,0.00,,,0.00,0.000000,,2013-08-01 09:35:00,
2013-08-01 04:20:00,65.0,50.0,-100.00,West,263,2.0,5.0,58,0.00,,,0.00,0.000000,,2013-08-01 10:20:00,
2013-08-01 05:13:00,64.0,54.0,-100.00,NNE,18,3.0,7.0,70,0.00,,,0.00,0.000000,,2013-08-01 11:13:00,
2013-08-01 05:19:00,64.0,54.0,-100.00,NNE,18,3.0,7.0,70,0.00,,,0.00,0.000000,,2013-08-01 11:19:00,
2013-08-01 05:32:00,64.0,54.0,-100.00,NNE,18,3.0,7.0,70,0.00,,,0.00,0.000000,,2013-08-01 11:32:00,
2013-08-01 05:35:00,67.0,54.0,-100.00,WSW,255,5.0,14.0,63,0.00,,,0.00,11.000000,,2013-08-01 11:35:00,
2013-08-01 06:12:00,67.0,54.0,-100.00,WSW,255,5.0,14.0,63,0.00,,,0.00,11.000000,,2013-08-01 12:12:00,
2013-08-01 08:13:00,66.0,56.0,-100.00,South,174,2.0,9.0,70,-99.99,,,0.00,180.000000,,2013-08-01 14:13:00,
2013-08-01 09:19:00,72.0,56.0,-100.00,ESE,121,2.0,6.0,57,0.00,,,0.00,452.000000,,2013-08-01 15:19:00,
2013-08-01 09:28:00,72.0,56.0,-100.00,ESE,121,2.0,6.0,57,0.00,,,0.00,452.000000,,2013-08-01 15:28:00,
2013-08-01 11:12:00,75.0,53.0,-100.00,West,266,5.0,19.0,47,-99.99,,,0.00,188.000000,,2013-08-01 17:12:00,
2013-08-01 11:19:00,75.0,53.0,-100.00,West,266,5.0,19.0,47,-99.99,,,0.00,188.000000,,2013-08-01 17:19:00,
2013-08-01 11:30:00,75.0,53.0,-100.00,West,266,5.0,19.0,47,-99.99,,,0.00,188.000000,,2013-08-01 17:30:00,
2013-08-01 11:35:00,75.0,48.0,-100.00,NE,47,7.0,19.0,39,0.00,,,0.00,130.000000,,2013-08-01 17:35:00,
2013-08-01 12:18:00,75.0,48.0,-100.00,NE,47,7.0,19.0,39,0.00,,,0.00,130.000000,,2013-08-01 18:18:00,
2013-08-01 12:31:00,75.0,48.0,-100.00,NE,47,7.0,19.0,39,0.00,,,0.00,130.000000,,2013-08-01 18:31:00,
2013-08-01 13:19:00,77.0,51.0,-100.00,NNE,14,6.0,20.0,40,0.00,,,0.00,60.000000,,2013-08-01 19:19:00,
2013-08-01 13:35:00,75.0,50.0,-100.00,ENE,74,8.0,17.0,41,0.00,,,0.00,3.000000,,2013-08-01 19:35:00,
2013-08-01 14:12:00,75.0,50.0,-100.00,ENE,74,8.0,17.0,41,0.00,,,0.00,3.000000,,2013-08-01 20:12:00,
2013-08-01 15:14:00,75.0,52.0,-100.00,ENE,57,7.0,19.0,44,0.00,,,0.00,0.000000,,2013-08-01 21:14:00,
2013-08-01 15:25:00,75.0,52.0,-100.00,ENE,57,7.0,19.0,44,0.00,,,0.00,0.000000,,2013-08-01 21:25:00,
2013-08-01 15:34:00,75.0,52.0,-100.00,ENE,57,7.0,19.0,44,0.00,,,0.00,0.000000,,2013-08-01 21:34:00,
2013-08-01 15:35:00,72.0,54.0,-100.00,NE,53,7.0,20.0,54,0.00,,,0.00,0.000000,,2013-08-01 21:35:00,
2013-08-01 16:16:00,72.0,54.0,-100.00,NE,53,7.0,20.0,54,0.00,,,0.00,0.000000,,2013-08-01 22:16:00,
2013-08-01 16:23:00,72.0,54.0,-100.00,NE,53,7.0,20.0,54,0.00,,,0.00,0.000000,,2013-08-01 22:23:00,
2013-08-01 17:08:00,73.0,53.0,-100.00,ENE,70,5.0,15.0,49,0.00,,,0.00,4.000000,,2013-08-01 23:08:00,
2013-08-01 17:16:00,73.0,53.0,-100.00,ENE,70,5.0,15.0,49,0.00,,,0.00,4.000000,,2013-08-01 23:16:00,
2013-08-01 17:25:00,73.0,53.0,-100.00,ENE,70,5.0,15.0,49,0.00,,,0.00,4.000000,,2013-08-01 23:25:00,
2013-08-01 17:32:00,73.0,53.0,-100.00,ENE,70,5.0,15.0,49,0.00,,,0.00,4.000000,,2013-08-01 23:32:00,
2013-08-01 17:35:00,75.0,50.0,-100.00,East,89,5.0,13.0,42,0.00,,,0.00,8.000000,,2013-08-01 23:35:00,
2013-08-01 18:08:00,75.0,50.0,-100.00,East,89,5.0,13.0,42,0.00,,,0.00,8.000000,,2013-08-02 00:08:00,
2013-08-01 18:17:00,75.0,50.0,-100.00,East,89,5.0,13.0,42,0.00,,,0.00,8.000000,,2013-08-02 00:17:00,
2013-08-01 18:35:00,75.0,52.0,-100.00,East,95,5.0,13.0,45,0.00,,,0.00,0.000000,,2013-08-02 00:35:00,
2013-08-01 19:03:00,75.0,52.0,-100.00,East,95,5.0,13.0,45,0.00,,,0.00,0.000000,,2013-08-02 01:03:00,
2013-08-01 19:16:00,75.0,52.0,-100.00,East,95,5.0,13.0,45,0.00,,,0.00,0.000000,,2013-08-02 01:16:00,
2013-08-01 20:07:00,75.0,53.0,-100.00,East,80,5.0,13.0,47,0.00,,,0.00,0.000000,,2013-08-02 02:07:00,
2013-08-01 20:15:00,75.0,53.0,-100.00,East,80,5.0,13.0,47,0.00,,,0.00,0.000000,,2013-08-02 02:15:00,
2013-08-01 20:34:00,75.0,53.0,-100.00,East,80,5.0,13.0,47,0.00,,,0.00,0.000000,,2013-08-02 02:34:00,
2013-08-01 20:35:00,70.0,51.0,-100.00,NE,56,5.0,15.0,51,0.00,,,0.00,0.000000,,2013-08-02 02:35:00,
2013-08-01 21:08:00,70.0,51.0,-100.00,NE,56,5.0,15.0,51,0.00,,,0.00,0.000000,,2013-08-02 03:08:00,
2013-08-01 21:23:00,70.0,51.0,-100.00,NE,56,5.0,15.0,51,0.00,,,0.00,0.000000,,2013-08-02 03:23:00,
2013-08-01 22:02:00,68.0,54.0,-100.00,NNE,30,6.0,16.0,61,0.00,,,0.00,0.000000,,2013-08-02 04:02:00,
2013-08-01 22:12:00,68.0,54.0,-100.00,NNE,30,6.0,16.0,61,0.00,,,0.00,0.000000,,2013-08-02 04:12:00,
2013-08-01 22:22:00,68.0,54.0,-100.00,NNE,30,6.0,16.0,61,0.00,,,0.00,0.000000,,2013-08-02 04:22:00,
2013-08-01 22:33:00,68.0,54.0,-100.00,NNE,30,6.0,16.0,61,0.00,,,0.00,0.000000,,2013-08-02 04:33:00,
2013-08-01 23:02:00,66.0,53.0,-100.00,NE,34,6.0,15.0,63,0.00,,,0.00,0.000000,,2013-08-02 05:02:00,
2013-08-01 23:12:00,66.0,53.0,-100.00,NE,34,6.0,15.0,63,0.00,,,0.00,0.000000,,2013-08-02 05:12:00,
2013-08-01 23:22:00,66.0,53.0,-100.00,NE,34,6.0,15.0,63,0.00,,,0.00,0.000000,,2013-08-02 05:22:00,
2013-08-01 23:32:00,66.0,53.0,-100.00,NE,34,6.0,15.0,63,0.00,,,0.00,0.000000,,2013-08-02 05:32:00,